Time;durP1;ratioP1;P1;durP2;ratioP2;P2;SDS_P1;SDS_P2;PMS_P1;PMS_P2;Temp;Humidity;BMP_temperature;BMP_pressure;BME280_temperature;BME280_humidity;BME280_pressure;Samples;Min_cycle;Max_cycle;Signal;HPM_P1;HPM_P2
2023/01/11 00:01:45;;;;;;;0.10;0.10;;;;;;;;;;7373622;19;20599;-69
2023/01/11 00:04:14;;;;;;;0.00;0.00;;;;;;;;;;7372588;19;20630;-69
2023/01/11 00:06:43;;;;;;;0.10;0.10;;;;;;;;;;7371260;19;20658;-69
2023/01/11 00:09:12;;;;;;;0.10;0.10;;;;;;;;;;7371644;19;20695;-68
2023/01/11 00:11:41;;;;;;;0.10;0.10;;;;;;;;;;7369019;19;20757;-68
2023/01/11 00:14:10;;;;;;;0.10;0.10;;;;;;;;;;7371603;19;20631;-70
2023/01/11 00:16:39;;;;;;;0.10;0.10;;;;;;;;;;7372941;19;20745;-69
2023/01/11 00:19:10;;;;;;;0.10;0.10;;;;;;;;;;7374086;19;20641;-69
2023/01/11 00:21:39;;;;;;;0.10;0.10;;;;;;;;;;7371029;19;20752;-68
2023/01/11 00:24:08;;;;;;;0.00;0.00;;;;;;;;;;7373885;19;20611;-68
2023/01/11 00:26:37;;;;;;;0.10;0.10;;;;;;;;;;7373286;19;20673;-68
2023/01/11 00:29:06;;;;;;;0.10;0.10;;;;;;;;;;7372624;19;20664;-69
2023/01/11 00:31:35;;;;;;;0.00;0.00;;;;;;;;;;7369667;19;20765;-67
2023/01/11 00:34:04;;;;;;;0.10;0.10;;;;;;;;;;7373292;19;20607;-69
2023/01/11 00:36:35;;;;;;;0.00;0.00;;;;;;;;;;7377720;19;20800;-69
2023/01/11 00:39:04;;;;;;;0.10;0.10;;;;;;;;;;7381094;19;21365;-69
2023/01/11 00:49:37;;;;;;;0.10;0.10;;;;;;;;;;7379318;19;21397;-70
2023/01/11 00:52:12;;;;;;;0.10;0.10;;;;;;;;;;7377673;19;20889;-69
2023/01/11 00:54:41;;;;;;;0.10;0.10;;;;;;;;;;7378866;19;20660;-67
2023/01/11 00:57:11;;;;;;;0.10;0.10;;;;;;;;;;7377365;19;20670;-68
2023/01/11 00:59:40;;;;;;;0.10;0.10;;;;;;;;;;7378167;19;20679;-68
2023/01/11 01:02:10;;;;;;;0.10;0.10;;;;;;;;;;7379259;19;20578;-68
2023/01/11 01:04:39;;;;;;;0.10;0.10;;;;;;;;;;7378691;19;20611;-68
2023/01/11 01:07:08;;;;;;;0.00;0.00;;;;;;;;;;7378334;19;20659;-68
2023/01/11 01:09:39;;;;;;;0.10;0.10;;;;;;;;;;7379601;19;20599;-68
2023/01/11 01:12:08;;;;;;;0.10;0.10;;;;;;;;;;7371608;19;20663;-68
2023/01/11 01:14:38;;;;;;;0.10;0.10;;;;;;;;;;7378270;19;20719;-68
2023/01/11 01:17:08;;;;;;;0.00;0.00;;;;;;;;;;7376063;19;20606;-68
2023/01/11 01:19:38;;;;;;;0.10;0.10;;;;;;;;;;7376243;19;20678;-68
2023/01/11 01:22:07;;;;;;;0.10;0.10;;;;;;;;;;7376067;19;20753;-68
2023/01/11 01:24:36;;;;;;;0.10;0.10;;;;;;;;;;7375243;19;20615;-68
2023/01/11 01:27:07;;;;;;;0.10;0.10;;;;;;;;;;7378290;19;20638;-69
2023/01/11 01:29:36;;;;;;;0.10;0.10;;;;;;;;;;7378510;19;20644;-68
2023/01/11 01:32:05;;;;;;;0.10;0.10;;;;;;;;;;7376227;19;20706;-68
2023/01/11 01:34:36;;;;;;;0.10;0.10;;;;;;;;;;7374444;19;20696;-68
2023/01/11 01:37:05;;;;;;;0.10;0.10;;;;;;;;;;7376908;19;20615;-68
2023/01/11 01:39:34;;;;;;;0.10;0.10;;;;;;;;;;7375869;19;20734;-67
2023/01/11 01:42:02;;;;;;;0.10;0.10;;;;;;;;;;7377525;19;20603;-68
2023/01/11 01:44:46;;;;;;;0.10;0.10;;;;;;;;;;7378516;19;20651;-69
2023/01/11 01:47:18;;;;;;;0.03;0.03;;;;;;;;;;7374625;19;20696;-68
2023/01/11 01:49:47;;;;;;;0.10;0.10;;;;;;;;;;7376421;19;21380;-68
2023/01/11 01:52:16;;;;;;;0.00;0.00;;;;;;;;;;7375749;19;20730;-68
2023/01/11 01:54:47;;;;;;;0.10;0.10;;;;;;;;;;7376304;19;20741;-69
2023/01/11 01:57:18;;;;;;;0.10;0.10;;;;;;;;;;7376984;19;20665;-68
2023/01/11 01:59:50;;;;;;;0.10;0.10;;;;;;;;;;7377202;19;20599;-68
2023/01/11 02:02:23;;;;;;;0.10;0.10;;;;;;;;;;7376395;19;20629;-68
2023/01/11 02:04:52;;;;;;;0.00;0.00;;;;;;;;;;7377003;19;20653;-68
2023/01/11 02:07:23;;;;;;;0.10;0.10;;;;;;;;;;7374204;19;20729;-69
2023/01/11 02:09:55;;;;;;;0.03;0.03;;;;;;;;;;7378074;19;20607;-68
2023/01/11 02:12:24;;;;;;;0.10;0.10;;;;;;;;;;7374027;19;20734;-69
2023/01/11 02:14:53;;;;;;;0.10;0.10;;;;;;;;;;7377506;19;20652;-68
2023/01/11 02:17:24;;;;;;;0.10;0.10;;;;;;;;;;7374978;19;20785;-68
2023/01/11 02:19:55;;;;;;;0.00;0.00;;;;;;;;;;7377080;19;20768;-68
2023/01/11 02:22:45;;;;;;;0.10;0.10;;;;;;;;;;7373638;19;20755;-68
2023/01/11 02:25:32;;;;;;;0.10;0.10;;;;;;;;;;7372889;19;20688;-69
2023/01/11 02:28:07;;;;;;;0.10;0.10;;;;;;;;;;7371295;19;20646;-68
2023/01/11 02:30:38;;;;;;;0.10;0.10;;;;;;;;;;7375187;19;20599;-68
2023/01/11 02:33:11;;;;;;;0.10;0.10;;;;;;;;;;7375830;19;20603;-67
2023/01/11 02:35:42;;;;;;;0.00;0.00;;;;;;;;;;7374540;19;20645;-68
2023/01/11 02:38:13;;;;;;;0.00;0.00;;;;;;;;;;7372037;19;20650;-68
2023/01/11 02:40:48;;;;;;;0.00;0.00;;;;;;;;;;7374875;19;20607;-68
2023/01/11 02:46:08;;;;;;;0.00;0.00;;;;;;;;;;7373059;19;20675;-68
2023/01/11 02:48:42;;;;;;;0.10;0.10;;;;;;;;;;7372843;19;20658;-67
2023/01/11 02:51:14;;;;;;;0.10;0.10;;;;;;;;;;7376385;19;20665;-68
2023/01/11 02:53:46;;;;;;;0.10;0.10;;;;;;;;;;7373837;19;20619;-69
2023/01/11 02:56:17;;;;;;;0.10;0.10;;;;;;;;;;7373855;19;20687;-68
2023/01/11 02:58:50;;;;;;;0.00;0.00;;;;;;;;;;7374278;19;20588;-68
2023/01/11 03:01:22;;;;;;;0.00;0.00;;;;;;;;;;7376163;19;20607;-68
2023/01/11 03:03:51;;;;;;;0.00;0.00;;;;;;;;;;7371807;19;20664;-68
2023/01/11 03:06:22;;;;;;;0.00;0.00;;;;;;;;;;7373637;19;20710;-68
2023/01/11 03:08:59;;;;;;;0.00;0.00;;;;;;;;;;7375102;19;20631;-68
2023/01/11 03:14:22;;;;;;;0.00;0.00;;;;;;;;;;7370657;19;20701;-68
2023/01/11 03:16:54;;;;;;;0.10;0.10;;;;;;;;;;7376177;19;20619;-67
2023/01/11 03:19:28;;;;;;;0.00;0.00;;;;;;;;;;7371977;19;20791;-68
2023/01/11 03:22:02;;;;;;;0.00;0.00;;;;;;;;;;7375213;19;20744;-68
2023/01/11 03:24:33;;;;;;;0.10;0.10;;;;;;;;;;7373679;19;20591;-68
2023/01/11 03:27:07;;;;;;;0.00;0.00;;;;;;;;;;7373767;19;20722;-68
2023/01/11 03:29:41;;;;;;;0.00;0.00;;;;;;;;;;7374496;19;20638;-68
2023/01/11 03:32:15;;;;;;;0.00;0.00;;;;;;;;;;7372925;19;20634;-68
2023/01/11 03:34:48;;;;;;;0.00;0.00;;;;;;;;;;7371972;19;21355;-68
2023/01/11 03:37:21;;;;;;;0.00;0.00;;;;;;;;;;7371285;19;20651;-68
2023/01/11 03:39:53;;;;;;;0.07;0.07;;;;;;;;;;7373424;19;20687;-68
2023/01/11 03:42:23;;;;;;;0.10;0.10;;;;;;;;;;7373602;19;20619;-68
2023/01/11 03:44:57;;;;;;;0.10;0.10;;;;;;;;;;7372861;19;20626;-68
2023/01/11 03:47:28;;;;;;;0.07;0.07;;;;;;;;;;7370505;19;20665;-68
2023/01/11 03:49:58;;;;;;;0.00;0.00;;;;;;;;;;7371097;19;20610;-68
2023/01/11 03:52:31;;;;;;;0.10;0.10;;;;;;;;;;7372738;19;20722;-68
2023/01/11 03:55:01;;;;;;;0.10;0.10;;;;;;;;;;7372441;19;21302;-68
2023/01/11 03:57:33;;;;;;;0.00;0.00;;;;;;;;;;7374181;19;20672;-68
2023/01/11 04:00:04;;;;;;;0.10;0.10;;;;;;;;;;7372771;19;21392;-68
2023/01/11 04:02:36;;;;;;;0.10;0.10;;;;;;;;;;7371204;19;20642;-68
2023/01/11 04:05:05;;;;;;;0.10;0.10;;;;;;;;;;7372739;19;20639;-68
2023/01/11 04:07:34;;;;;;;0.00;0.00;;;;;;;;;;7371860;19;20603;-68
2023/01/11 04:10:03;;;;;;;0.10;0.10;;;;;;;;;;7374634;19;20649;-68
2023/01/11 04:12:32;;;;;;;0.10;0.10;;;;;;;;;;7379865;19;20663;-68
2023/01/11 04:15:02;;;;;;;0.10;0.10;;;;;;;;;;7379467;19;20652;-68
2023/01/11 04:17:33;;;;;;;0.10;0.10;;;;;;;;;;7380387;19;20619;-68
2023/01/11 04:20:02;;;;;;;0.00;0.00;;;;;;;;;;7381055;19;20651;-67
2023/01/11 04:22:31;;;;;;;0.10;0.10;;;;;;;;;;7380018;19;20594;-68
2023/01/11 04:25:00;;;;;;;0.10;0.10;;;;;;;;;;7381305;19;20722;-68
2023/01/11 04:27:29;;;;;;;0.10;0.10;;;;;;;;;;7378457;19;20773;-69
2023/01/11 04:29:58;;;;;;;0.00;0.00;;;;;;;;;;7379797;19;20595;-68
2023/01/11 04:32:27;;;;;;;0.10;0.10;;;;;;;;;;7377590;19;20679;-68
2023/01/11 04:34:59;;;;;;;0.00;0.00;;;;;;;;;;7379374;19;20694;-67
2023/01/11 04:37:27;;;;;;;0.10;0.10;;;;;;;;;;7377813;19;20683;-68
2023/01/11 04:39:56;;;;;;;0.10;0.10;;;;;;;;;;7380141;19;20595;-68
2023/01/11 04:42:24;;;;;;;0.10;0.10;;;;;;;;;;7378186;19;20619;-67
2023/01/11 04:44:53;;;;;;;0.10;0.10;;;;;;;;;;7378650;19;20607;-68
2023/01/11 04:47:23;;;;;;;0.10;0.10;;;;;;;;;;7378448;19;20671;-68
2023/01/11 04:49:52;;;;;;;0.00;0.00;;;;;;;;;;7379559;19;20694;-68
2023/01/11 04:52:24;;;;;;;0.00;0.00;;;;;;;;;;7378498;19;20627;-69
2023/01/11 04:54:53;;;;;;;0.10;0.10;;;;;;;;;;7377888;19;20614;-68
2023/01/11 04:57:23;;;;;;;0.10;0.10;;;;;;;;;;7379365;19;20603;-68
2023/01/11 04:59:55;;;;;;;0.00;0.00;;;;;;;;;;7379239;19;20638;-68
2023/01/11 05:02:23;;;;;;;0.10;0.10;;;;;;;;;;7380166;19;20718;-68
2023/01/11 05:04:52;;;;;;;0.10;0.10;;;;;;;;;;7377361;19;20606;-67
2023/01/11 05:07:24;;;;;;;0.10;0.10;;;;;;;;;;7376067;19;20662;-68
2023/01/11 05:09:53;;;;;;;0.10;0.10;;;;;;;;;;7378377;19;20836;-67
2023/01/11 05:12:21;;;;;;;0.10;0.10;;;;;;;;;;7376389;19;20646;-69
2023/01/11 05:14:50;;;;;;;0.10;0.10;;;;;;;;;;7377921;19;20673;-68
2023/01/11 05:17:19;;;;;;;0.00;0.00;;;;;;;;;;7377589;19;20614;-68
2023/01/11 05:19:48;;;;;;;0.10;0.10;;;;;;;;;;7376095;19;20630;-68
2023/01/11 05:22:17;;;;;;;0.10;0.10;;;;;;;;;;7376597;19;20687;-68
2023/01/11 05:24:49;;;;;;;0.00;0.00;;;;;;;;;;7376694;19;20769;-68
2023/01/11 05:27:18;;;;;;;0.10;0.10;;;;;;;;;;7376940;19;20675;-68
2023/01/11 05:29:47;;;;;;;0.10;0.10;;;;;;;;;;7377516;19;20671;-68
2023/01/11 05:32:16;;;;;;;0.10;0.10;;;;;;;;;;7378499;19;20644;-68
2023/01/11 05:34:45;;;;;;;0.00;0.00;;;;;;;;;;7377774;19;20641;-68
2023/01/11 05:37:13;;;;;;;0.10;0.10;;;;;;;;;;7376314;19;20651;-68
2023/01/11 05:39:42;;;;;;;0.10;0.10;;;;;;;;;;7378035;19;20639;-67
2023/01/11 05:42:15;;;;;;;0.10;0.10;;;;;;;;;;7379780;19;20740;-68
2023/01/11 05:47:25;;;;;;;0.10;0.10;;;;;;;;;;7378542;19;20647;-71
2023/01/11 05:49:54;;;;;;;0.07;0.07;;;;;;;;;;7377225;19;20737;-67
2023/01/11 05:52:23;;;;;;;0.10;0.10;;;;;;;;;;7376541;19;20689;-66
2023/01/11 05:54:52;;;;;;;0.10;0.10;;;;;;;;;;7375584;19;20671;-67
2023/01/11 05:57:24;;;;;;;0.10;0.10;;;;;;;;;;7376658;19;20611;-68
2023/01/11 05:59:52;;;;;;;0.03;0.03;;;;;;;;;;7376073;19;20623;-67
2023/01/11 06:02:21;;;;;;;0.10;0.10;;;;;;;;;;7376847;19;20639;-67
2023/01/11 06:04:50;;;;;;;0.10;0.10;;;;;;;;;;7373873;19;20683;-67
2023/01/11 06:07:19;;;;;;;0.00;0.00;;;;;;;;;;7376662;19;20657;-67
2023/01/11 06:09:48;;;;;;;0.07;0.07;;;;;;;;;;7375877;19;20627;-67
2023/01/11 06:12:17;;;;;;;0.00;0.00;;;;;;;;;;7376989;19;20607;-67
2023/01/11 06:14:48;;;;;;;0.10;0.10;;;;;;;;;;7375504;19;20646;-67
2023/01/11 06:17:17;;;;;;;0.10;0.10;;;;;;;;;;7374524;19;20723;-67
2023/01/11 06:19:46;;;;;;;0.10;0.10;;;;;;;;;;7377470;19;20737;-67
2023/01/11 06:22:15;;;;;;;0.10;0.10;;;;;;;;;;7375569;19;20667;-68
2023/01/11 06:24:44;;;;;;;0.07;0.07;;;;;;;;;;7376936;19;20622;-67
2023/01/11 06:27:12;;;;;;;0.00;0.00;;;;;;;;;;7374530;19;20658;-66
2023/01/11 06:29:41;;;;;;;0.10;0.10;;;;;;;;;;7378052;19;20604;-68
2023/01/11 06:32:13;;;;;;;0.10;0.10;;;;;;;;;;7373722;19;20632;-66
2023/01/11 06:34:42;;;;;;;0.00;0.00;;;;;;;;;;7373918;19;20753;-67
2023/01/11 06:37:11;;;;;;;0.10;0.10;;;;;;;;;;7373923;19;20184;-67
2023/01/11 06:39:40;;;;;;;0.10;0.10;;;;;;;;;;7374782;19;20631;-66
2023/01/11 06:42:09;;;;;;;0.10;0.10;;;;;;;;;;7375864;19;20639;-66
2023/01/11 06:44:38;;;;;;;0.00;0.00;;;;;;;;;;7374325;19;20664;-67
2023/01/11 06:47:07;;;;;;;0.10;0.10;;;;;;;;;;7376723;19;20614;-67
2023/01/11 06:49:38;;;;;;;0.10;0.10;;;;;;;;;;7376010;19;20612;-66
2023/01/11 06:52:07;;;;;;;0.10;0.10;;;;;;;;;;7375309;19;20749;-67
2023/01/11 06:54:36;;;;;;;0.07;0.07;;;;;;;;;;7373366;19;20611;-67
2023/01/11 06:57:05;;;;;;;0.10;0.10;;;;;;;;;;7375275;19;20765;-67
2023/01/11 06:59:34;;;;;;;0.00;0.00;;;;;;;;;;7373570;19;20638;-66
2023/01/11 07:02:03;;;;;;;0.00;0.00;;;;;;;;;;7374784;19;20623;-67
2023/01/11 07:04:32;;;;;;;0.07;0.07;;;;;;;;;;7373473;19;20667;-67
2023/01/11 07:07:04;;;;;;;0.10;0.10;;;;;;;;;;7374661;19;20667;-67
2023/01/11 07:09:33;;;;;;;0.10;0.10;;;;;;;;;;7374403;19;20647;-66
2023/01/11 07:12:02;;;;;;;0.07;0.07;;;;;;;;;;7375017;19;20630;-66
2023/01/11 07:14:31;;;;;;;0.10;0.10;;;;;;;;;;7374080;19;20607;-66
2023/01/11 07:17:00;;;;;;;0.10;0.10;;;;;;;;;;7376016;19;20655;-66
2023/01/11 07:19:29;;;;;;;0.00;0.00;;;;;;;;;;7374953;19;20800;-67
2023/01/11 07:21:58;;;;;;;0.10;0.10;;;;;;;;;;7376050;19;20714;-67
2023/01/11 07:24:29;;;;;;;0.10;0.10;;;;;;;;;;7375728;19;20619;-67
2023/01/11 07:27:00;;;;;;;0.10;0.10;;;;;;;;;;7374797;19;20707;-67
2023/01/11 07:29:31;;;;;;;0.10;0.10;;;;;;;;;;7376954;19;20648;-67
2023/01/11 07:32:00;;;;;;;0.10;0.10;;;;;;;;;;7374491;19;20660;-66
2023/01/11 07:34:29;;;;;;;0.10;0.10;;;;;;;;;;7371391;19;20765;-67
2023/01/11 07:36:57;;;;;;;0.10;0.10;;;;;;;;;;7373367;19;20662;-67
2023/01/11 07:39:29;;;;;;;0.00;0.00;;;;;;;;;;7374000;19;20679;-66
2023/01/11 07:44:39;;;;;;;0.00;0.00;;;;;;;;;;7378138;19;20688;-67
2023/01/11 07:47:08;;;;;;;0.03;0.03;;;;;;;;;;7380703;19;20740;-67
2023/01/11 07:49:37;;;;;;;0.00;0.00;;;;;;;;;;7382495;19;20697;-67
2023/01/11 07:52:06;;;;;;;0.10;0.10;;;;;;;;;;7382679;19;20638;-67
2023/01/11 07:54:37;;;;;;;0.10;0.10;;;;;;;;;;7379749;19;20619;-67
2023/01/11 07:57:06;;;;;;;0.10;0.10;;;;;;;;;;7379696;19;20797;-67
2023/01/11 07:59:35;;;;;;;0.10;0.10;;;;;;;;;;7380763;19;20741;-66
2023/01/11 08:02:04;;;;;;;0.10;0.10;;;;;;;;;;7380467;19;20729;-67
2023/01/11 08:04:33;;;;;;;0.00;0.00;;;;;;;;;;7379499;19;20673;-67
2023/01/11 08:07:02;;;;;;;0.00;0.00;;;;;;;;;;7379142;19;20691;-67
2023/01/11 08:09:30;;;;;;;0.00;0.00;;;;;;;;;;7381907;19;20677;-67
2023/01/11 08:14:43;;;;;;;0.07;0.07;;;;;;;;;;7375677;19;20734;-67
2023/01/11 08:17:14;;;;;;;0.10;0.10;;;;;;;;;;7380399;19;20746;-67
2023/01/11 08:19:43;;;;;;;0.10;0.10;;;;;;;;;;7378213;19;20634;-68
2023/01/11 08:22:12;;;;;;;0.00;0.00;;;;;;;;;;7379426;19;20630;-66
2023/01/11 08:24:41;;;;;;;0.00;0.00;;;;;;;;;;7380565;19;21015;-66
2023/01/11 08:27:13;;;;;;;0.10;0.10;;;;;;;;;;7380196;19;20619;-67
2023/01/11 08:29:43;;;;;;;0.00;0.00;;;;;;;;;;7380685;19;20590;-67
2023/01/11 08:32:11;;;;;;;0.00;0.00;;;;;;;;;;7381107;19;20607;-67
2023/01/11 08:34:40;;;;;;;0.00;0.00;;;;;;;;;;7378411;19;20611;-67
2023/01/11 08:37:09;;;;;;;0.10;0.10;;;;;;;;;;7379943;19;20619;-67
2023/01/11 08:39:39;;;;;;;0.10;0.10;;;;;;;;;;7380520;19;20728;-67
2023/01/11 08:42:08;;;;;;;0.10;0.10;;;;;;;;;;7380337;19;20663;-66
2023/01/11 08:44:39;;;;;;;0.10;0.10;;;;;;;;;;7380420;19;20709;-66
2023/01/11 08:47:08;;;;;;;0.10;0.10;;;;;;;;;;7380709;19;20741;-66
2023/01/11 08:49:37;;;;;;;0.10;0.10;;;;;;;;;;7378639;19;20757;-69
2023/01/11 08:52:06;;;;;;;0.10;0.10;;;;;;;;;;7380816;19;21013;-66
2023/01/11 08:54:35;;;;;;;0.00;0.00;;;;;;;;;;7375805;19;20641;-67
2023/01/11 08:57:04;;;;;;;0.00;0.00;;;;;;;;;;7378054;19;20596;-67
2023/01/11 08:59:32;;;;;;;0.07;0.07;;;;;;;;;;7379174;19;20628;-66
2023/01/11 09:02:04;;;;;;;0.00;0.00;;;;;;;;;;7380066;19;20603;-67
2023/01/11 09:04:33;;;;;;;0.00;0.00;;;;;;;;;;7379606;19;20591;-67
2023/01/11 09:07:02;;;;;;;0.00;0.00;;;;;;;;;;7379379;19;20657;-67
2023/01/11 09:09:32;;;;;;;0.10;0.10;;;;;;;;;;7378142;19;20610;-67
2023/01/11 09:12:03;;;;;;;0.00;0.00;;;;;;;;;;7380732;19;20657;-67
2023/01/11 09:14:33;;;;;;;0.10;0.10;;;;;;;;;;7375454;19;20704;-67
2023/01/11 09:17:04;;;;;;;0.10;0.10;;;;;;;;;;7377810;19;20678;-68
2023/01/11 09:19:34;;;;;;;0.00;0.00;;;;;;;;;;7377205;19;20717;-69
2023/01/11 09:22:03;;;;;;;0.00;0.00;;;;;;;;;;7380120;19;20706;-69
2023/01/11 09:24:32;;;;;;;0.00;0.00;;;;;;;;;;7378689;19;21148;-69
2023/01/11 09:27:03;;;;;;;0.00;0.00;;;;;;;;;;7380120;19;20619;-69
2023/01/11 09:29:32;;;;;;;0.00;0.00;;;;;;;;;;7377521;19;20743;-68
2023/01/11 09:32:01;;;;;;;0.10;0.10;;;;;;;;;;7379854;19;20641;-71
2023/01/11 09:34:33;;;;;;;0.10;0.10;;;;;;;;;;7375251;19;20762;-69
2023/01/11 09:37:05;;;;;;;0.10;0.10;;;;;;;;;;7376805;19;20655;-69
2023/01/11 09:39:34;;;;;;;0.10;0.10;;;;;;;;;;7379079;19;20713;-69
2023/01/11 09:42:18;;;;;;;0.10;0.10;;;;;;;;;;7377922;19;20630;-69
2023/01/11 09:44:51;;;;;;;0.07;0.07;;;;;;;;;;7376230;19;21109;-69
2023/01/11 09:47:24;;;;;;;0.00;0.00;;;;;;;;;;7378426;19;20627;-68
2023/01/11 09:49:58;;;;;;;0.00;0.00;;;;;;;;;;7378457;19;20614;-67
2023/01/11 09:52:31;;;;;;;0.10;0.10;;;;;;;;;;7376152;19;20630;-67
2023/01/11 09:55:01;;;;;;;0.00;0.00;;;;;;;;;;7376539;19;20673;-67
2023/01/11 09:57:50;;;;;;;0.00;0.00;;;;;;;;;;7374497;19;20650;-66
2023/01/11 10:00:25;;;;;;;0.00;0.00;;;;;;;;;;7378445;19;20607;-67
2023/01/11 10:03:03;;;;;;;0.10;0.10;;;;;;;;;;7375039;19;20618;-67
2023/01/11 10:05:45;;;;;;;0.00;0.00;;;;;;;;;;7376362;19;20673;-67
2023/01/11 10:08:26;;;;;;;0.10;0.10;;;;;;;;;;7371370;19;20650;-66
2023/01/11 10:11:03;;;;;;;0.10;0.10;;;;;;;;;;7375358;19;20661;-67
2023/01/11 10:13:44;;;;;;;0.00;0.00;;;;;;;;;;7374671;19;20619;-68
2023/01/11 10:16:21;;;;;;;0.10;0.10;;;;;;;;;;7377419;19;20599;-68
2023/01/11 10:18:57;;;;;;;0.03;0.03;;;;;;;;;;7374437;19;20967;-67
2023/01/11 10:21:30;;;;;;;0.00;0.00;;;;;;;;;;7375418;19;20672;-67
2023/01/11 10:24:02;;;;;;;0.00;0.00;;;;;;;;;;7375322;19;20656;-67
2023/01/11 10:26:35;;;;;;;0.00;0.00;;;;;;;;;;7374622;19;20661;-67
2023/01/11 10:29:21;;;;;;;0.10;0.10;;;;;;;;;;7374970;19;20615;-67
2023/01/11 10:32:08;;;;;;;0.07;0.07;;;;;;;;;;7376567;19;20607;-66
2023/01/11 10:34:58;;;;;;;0.10;0.10;;;;;;;;;;7374807;19;21267;-66
2023/01/11 10:37:45;;;;;;;0.10;0.10;;;;;;;;;;7374164;19;21326;-66
2023/01/11 10:40:33;;;;;;;0.10;0.10;;;;;;;;;;7374966;19;20615;-67
2023/01/11 10:43:07;;;;;;;0.00;0.00;;;;;;;;;;7374832;19;20709;-66
2023/01/11 10:45:40;;;;;;;0.10;0.10;;;;;;;;;;7374272;19;20736;-66
2023/01/11 10:48:13;;;;;;;0.00;0.00;;;;;;;;;;7375766;19;20619;-66
2023/01/11 10:50:45;;;;;;;0.00;0.00;;;;;;;;;;7375492;19;20603;-66
2023/01/11 10:53:22;;;;;;;0.00;0.00;;;;;;;;;;7377864;19;20595;-66
2023/01/11 10:55:54;;;;;;;0.10;0.10;;;;;;;;;;7375310;19;20615;-66
2023/01/11 10:58:30;;;;;;;0.00;0.00;;;;;;;;;;7373979;19;20650;-66
2023/01/11 11:01:07;;;;;;;0.00;0.00;;;;;;;;;;7375804;19;20732;-65
2023/01/11 11:03:46;;;;;;;0.10;0.10;;;;;;;;;;7375620;19;20627;-66
2023/01/11 11:06:19;;;;;;;0.00;0.00;;;;;;;;;;7373544;19;20760;-65
2023/01/11 11:08:54;;;;;;;0.00;0.00;;;;;;;;;;7374455;19;20781;-66
2023/01/11 11:11:24;;;;;;;0.00;0.00;;;;;;;;;;7373609;19;20658;-66
2023/01/11 11:13:57;;;;;;;0.10;0.10;;;;;;;;;;7373144;19;20669;-66
2023/01/11 11:16:35;;;;;;;0.00;0.00;;;;;;;;;;7374434;19;20659;-66
2023/01/11 11:19:05;;;;;;;0.00;0.00;;;;;;;;;;7374181;19;20614;-66
2023/01/11 11:21:36;;;;;;;0.00;0.00;;;;;;;;;;7373948;19;20734;-66
2023/01/11 11:24:09;;;;;;;0.10;0.10;;;;;;;;;;7374117;19;20599;-66
2023/01/11 11:26:40;;;;;;;0.00;0.00;;;;;;;;;;7376245;19;20615;-66
2023/01/11 11:29:10;;;;;;;0.10;0.10;;;;;;;;;;7373260;19;20704;-66
2023/01/11 11:31:40;;;;;;;0.00;0.00;;;;;;;;;;7372974;19;20619;-66
2023/01/11 11:34:10;;;;;;;0.00;0.00;;;;;;;;;;7371865;19;21329;-66
2023/01/11 11:36:43;;;;;;;0.07;0.07;;;;;;;;;;7372886;19;20777;-65
2023/01/11 11:39:20;;;;;;;0.00;0.00;;;;;;;;;;7374791;19;21315;-65
2023/01/11 11:41:50;;;;;;;0.00;0.00;;;;;;;;;;7374145;19;20595;-66
2023/01/11 11:44:20;;;;;;;0.00;0.00;;;;;;;;;;7372576;19;20627;-67
2023/01/11 11:46:59;;;;;;;0.10;0.10;;;;;;;;;;7374234;19;20604;-68
2023/01/11 11:49:28;;;;;;;0.00;0.00;;;;;;;;;;7374262;19;20610;-69
2023/01/11 11:51:58;;;;;;;0.00;0.00;;;;;;;;;;7373600;19;20618;-68
2023/01/11 11:54:31;;;;;;;0.10;0.10;;;;;;;;;;7371495;19;20745;-67
2023/01/11 11:57:01;;;;;;;0.00;0.00;;;;;;;;;;7374421;19;20623;-68
2023/01/11 11:59:32;;;;;;;0.00;0.00;;;;;;;;;;7373971;19;20592;-68
2023/01/11 12:02:03;;;;;;;0.10;0.10;;;;;;;;;;7375014;19;20611;-68
2023/01/11 12:04:34;;;;;;;0.10;0.10;;;;;;;;;;7374415;19;20591;-68
2023/01/11 12:07:08;;;;;;;0.00;0.00;;;;;;;;;;7371615;19;20647;-67
2023/01/11 12:09:42;;;;;;;0.00;0.00;;;;;;;;;;7373217;19;20627;-68
2023/01/11 12:12:17;;;;;;;0.10;0.10;;;;;;;;;;7371410;19;20753;-68
2023/01/11 12:14:47;;;;;;;0.00;0.00;;;;;;;;;;7374663;19;20745;-69
2023/01/11 12:17:24;;;;;;;0.00;0.00;;;;;;;;;;7371056;19;20723;-68
2023/01/11 12:19:53;;;;;;;0.00;0.00;;;;;;;;;;7374883;19;20607;-68
2023/01/11 12:22:22;;;;;;;0.00;0.00;;;;;;;;;;7372169;19;20615;-68
2023/01/11 12:25:08;;;;;;;0.10;0.10;;;;;;;;;;7372849;19;20746;-68
2023/01/11 12:27:41;;;;;;;0.00;0.00;;;;;;;;;;7371908;19;20737;-68
2023/01/11 12:30:19;;;;;;;0.10;0.10;;;;;;;;;;7372464;19;20622;-68
2023/01/11 12:32:59;;;;;;;0.00;0.00;;;;;;;;;;7380006;19;20630;-69
2023/01/11 12:35:36;;;;;;;0.00;0.00;;;;;;;;;;7377430;19;20630;-68
2023/01/11 12:38:17;;;;;;;0.07;0.07;;;;;;;;;;7376732;19;20662;-69
2023/01/11 12:40:53;;;;;;;0.00;0.00;;;;;;;;;;7380185;19;20643;-68
2023/01/11 12:43:28;;;;;;;0.00;0.00;;;;;;;;;;7381041;19;20678;-68
2023/01/11 12:46:02;;;;;;;0.00;0.00;;;;;;;;;;7380737;19;20642;-69
2023/01/11 12:48:45;;;;;;;0.00;0.00;;;;;;;;;;7378788;19;20602;-68
2023/01/11 12:51:18;;;;;;;0.07;0.07;;;;;;;;;;7381274;19;20607;-68
2023/01/11 12:53:53;;;;;;;0.10;0.10;;;;;;;;;;7379328;19;20773;-68
2023/01/11 12:56:31;;;;;;;0.00;0.00;;;;;;;;;;7376231;19;20754;-67
2023/01/11 12:59:03;;;;;;;0.00;0.00;;;;;;;;;;7379724;19;20614;-69
2023/01/11 13:01:39;;;;;;;0.00;0.00;;;;;;;;;;7381344;19;20639;-68
2023/01/11 13:04:20;;;;;;;0.00;0.00;;;;;;;;;;7380690;19;20651;-68
2023/01/11 13:06:55;;;;;;;0.00;0.00;;;;;;;;;;7378361;19;20734;-70
2023/01/11 13:09:28;;;;;;;0.10;0.10;;;;;;;;;;7379196;19;20630;-69
2023/01/11 13:12:02;;;;;;;0.10;0.10;;;;;;;;;;7380009;19;20642;-68
2023/01/11 13:14:44;;;;;;;0.10;0.10;;;;;;;;;;7379510;19;20692;-70
2023/01/11 13:17:20;;;;;;;0.00;0.00;;;;;;;;;;7377757;19;20647;-68
2023/01/11 13:19:53;;;;;;;0.00;0.00;;;;;;;;;;7381186;19;20599;-69
2023/01/11 13:22:25;;;;;;;0.00;0.00;;;;;;;;;;7377251;19;20675;-68
2023/01/11 13:24:54;;;;;;;0.10;0.10;;;;;;;;;;7377545;19;20679;-70
2023/01/11 13:27:27;;;;;;;0.00;0.00;;;;;;;;;;7377756;19;20743;-69
2023/01/11 13:29:58;;;;;;;0.00;0.00;;;;;;;;;;7379998;19;20618;-68
2023/01/11 13:32:29;;;;;;;0.00;0.00;;;;;;;;;;7378304;19;20634;-68
2023/01/11 13:35:00;;;;;;;0.00;0.00;;;;;;;;;;7378131;19;20615;-69
2023/01/11 13:37:32;;;;;;;0.10;0.10;;;;;;;;;;7376262;19;20837;-68
2023/01/11 13:40:03;;;;;;;0.00;0.00;;;;;;;;;;7380234;19;20717;-67
2023/01/11 13:42:37;;;;;;;0.00;0.00;;;;;;;;;;7375953;19;20627;-68
2023/01/11 13:45:11;;;;;;;0.00;0.00;;;;;;;;;;7378835;19;20603;-68
2023/01/11 13:47:42;;;;;;;0.00;0.00;;;;;;;;;;7376098;19;20704;-68
2023/01/11 13:50:13;;;;;;;0.10;0.10;;;;;;;;;;7377840;19;20627;-68
2023/01/11 13:52:46;;;;;;;0.10;0.10;;;;;;;;;;7375725;19;20987;-67
2023/01/11 13:55:17;;;;;;;0.10;0.10;;;;;;;;;;7376160;19;20619;-68
2023/01/11 13:57:53;;;;;;;0.00;0.00;;;;;;;;;;7374738;19;20667;-68
2023/01/11 14:00:24;;;;;;;0.07;0.07;;;;;;;;;;7377022;19;20630;-70
2023/01/11 14:02:57;;;;;;;0.10;0.10;;;;;;;;;;7379189;19;20629;-68
2023/01/11 14:05:26;;;;;;;0.10;0.10;;;;;;;;;;7377227;19;20615;-69
2023/01/11 14:07:59;;;;;;;0.00;0.00;;;;;;;;;;7377055;19;20623;-67
2023/01/11 14:10:36;;;;;;;0.10;0.10;;;;;;;;;;7375826;19;20627;-68
2023/01/11 14:14:11;;;;;;;0.07;0.07;;;;;;;;;;7376102;19;20682;-68
2023/01/11 14:16:10;;;;;;;0.00;0.00;;;;;;;;;;7376978;19;20634;-68
2023/01/11 14:18:41;;;;;;;0.00;0.00;;;;;;;;;;7374697;19;20646;-69
2023/01/11 14:21:16;;;;;;;0.00;0.00;;;;;;;;;;7377997;19;20615;-68
2023/01/11 14:23:49;;;;;;;0.00;0.00;;;;;;;;;;7377009;19;20725;-68
2023/01/11 14:26:39;;;;;;;0.00;0.00;;;;;;;;;;7376063;19;20631;-68
2023/01/11 14:29:16;;;;;;;0.10;0.10;;;;;;;;;;7376281;19;20627;-68
2023/01/11 14:31:53;;;;;;;0.10;0.10;;;;;;;;;;7375344;19;20619;-68
2023/01/11 14:34:46;;;;;;;0.00;0.00;;;;;;;;;;7376275;19;20657;-68
2023/01/11 14:37:25;;;;;;;0.00;0.00;;;;;;;;;;7374652;19;20709;-68
2023/01/11 14:40:02;;;;;;;0.00;0.00;;;;;;;;;;7376619;19;20753;-67
2023/01/11 14:42:37;;;;;;;0.10;0.10;;;;;;;;;;7375855;19;20598;-68
2023/01/11 14:45:16;;;;;;;0.00;0.00;;;;;;;;;;7378395;19;20705;-68
2023/01/11 14:48:00;;;;;;;0.03;0.03;;;;;;;;;;7374576;19;20704;-67
2023/01/11 14:50:37;;;;;;;0.00;0.00;;;;;;;;;;7377639;19;20695;-67
2023/01/11 14:53:07;;;;;;;0.00;0.00;;;;;;;;;;7375794;19;20195;-67
2023/01/11 14:55:43;;;;;;;0.10;0.10;;;;;;;;;;7374147;19;20643;-66
2023/01/11 14:58:20;;;;;;;0.10;0.10;;;;;;;;;;7373261;19;20662;-66
2023/01/11 15:01:06;;;;;;;0.00;0.00;;;;;;;;;;7377075;19;20618;-66
2023/01/11 15:03:44;;;;;;;0.00;0.00;;;;;;;;;;7376539;19;20598;-67
2023/01/11 15:06:15;;;;;;;0.00;0.00;;;;;;;;;;7375219;19;20714;-67
2023/01/11 15:08:46;;;;;;;0.00;0.00;;;;;;;;;;7376051;19;20607;-66
2023/01/11 15:11:35;;;;;;;0.00;0.00;;;;;;;;;;7376727;19;20721;-66
2023/01/11 15:14:07;;;;;;;0.00;0.00;;;;;;;;;;7374960;19;20615;-66
2023/01/11 15:19:29;;;;;;;0.00;0.00;;;;;;;;;;7374797;19;20599;-67
2023/01/11 15:21:59;;;;;;;0.00;0.00;;;;;;;;;;7375419;19;20598;-66
2023/01/11 15:24:29;;;;;;;0.00;0.00;;;;;;;;;;7375250;19;20783;-67
2023/01/11 15:26:59;;;;;;;0.00;0.00;;;;;;;;;;7373308;19;20678;-67
2023/01/11 15:29:29;;;;;;;0.00;0.00;;;;;;;;;;7373524;19;20615;-67
2023/01/11 15:32:07;;;;;;;0.00;0.00;;;;;;;;;;7374224;19;20667;-66
2023/01/11 15:34:45;;;;;;;0.03;0.03;;;;;;;;;;7371630;19;20725;-66
2023/01/11 15:37:30;;;;;;;0.10;0.10;;;;;;;;;;7371904;19;20252;-67